createdAt,value
2022-11-24T00:00:53.187Z,92118.47
2022-11-24T00:03:19.980Z,92118.88
2022-11-24T00:05:46.557Z,92119.28
2022-11-24T00:08:13.232Z,92128.97
2022-11-24T00:10:39.671Z,92124.75
2022-11-24T00:13:06.165Z,92124.91
2022-11-24T00:15:32.624Z,92119.75
2022-11-24T00:17:59.073Z,92132.47
2022-11-24T00:20:25.507Z,92140.59
2022-11-24T00:22:51.958Z,92135.91
2022-11-24T00:25:18.402Z,92134.88
2022-11-24T00:27:44.818Z,92136.63
2022-11-24T00:30:11.792Z,92132.22
2022-11-24T00:32:38.329Z,92123.94
2022-11-24T00:35:05.309Z,92122.13
2022-11-24T00:37:31.784Z,92118.69
2022-11-24T00:39:58.204Z,92116.31
2022-11-24T00:42:24.634Z,92116.06
2022-11-24T00:44:51.098Z,92128.53
2022-11-24T00:47:17.584Z,92124.97
2022-11-24T00:49:44.081Z,92130.72
2022-11-24T00:52:10.504Z,92126.00
2022-11-24T00:54:36.953Z,92133.25
2022-11-24T00:57:03.382Z,92138.53
2022-11-24T00:59:29.830Z,92141.13
2022-11-24T01:01:56.312Z,92139.06
2022-11-24T01:04:22.830Z,92145.00
2022-11-24T01:06:49.299Z,92150.13
2022-11-24T01:09:15.729Z,92156.38
2022-11-24T01:12:00.510Z,92162.28
2022-11-24T01:14:27.737Z,92165.63
2022-11-24T01:16:54.830Z,92165.94
2022-11-24T01:19:21.366Z,92167.50
2022-11-24T01:21:47.986Z,92176.34
2022-11-24T01:24:15.470Z,92184.69
2022-11-24T01:26:42.138Z,92189.59
2022-11-24T01:29:11.044Z,92179.47
2022-11-24T01:31:37.545Z,92176.81
2022-11-24T01:34:04.083Z,92179.19
2022-11-24T01:36:30.559Z,92184.94
2022-11-24T01:38:56.969Z,92196.13
2022-11-24T01:41:25.489Z,92187.59
2022-11-24T01:43:53.469Z,92191.56
2022-11-24T01:46:24.589Z,92191.94
2022-11-24T01:49:18.996Z,92190.91
2022-11-24T01:52:08.890Z,92192.03
2022-11-24T01:54:45.564Z,92205.50
2022-11-24T01:57:24.057Z,92207.50
2022-11-24T01:59:55.916Z,92204.91
2022-11-24T02:02:28.284Z,92207.19
2022-11-24T02:04:57.763Z,92204.34
2022-11-24T02:07:25.086Z,92205.22
2022-11-24T02:09:55.737Z,92209.13
2022-11-24T02:12:24.511Z,92210.81
2022-11-24T02:14:52.368Z,92196.66
2022-11-24T02:17:18.882Z,92212.84
2022-11-24T02:19:56.716Z,92206.38
2022-11-24T02:22:52.714Z,92207.06
2022-11-24T02:25:44.960Z,92211.50
2022-11-24T02:28:16.307Z,92210.72
2022-11-24T02:30:43.127Z,92208.41
2022-11-24T02:33:11.213Z,92206.63
2022-11-24T02:39:43.722Z,92208.47
2022-11-24T02:42:13.748Z,92199.34
2022-11-24T02:44:44.086Z,92207.06
2022-11-24T02:47:12.771Z,92204.91
2022-11-24T02:49:39.618Z,92203.00
2022-11-24T02:52:06.230Z,92193.34
2022-11-24T02:54:33.027Z,92201.38
2022-11-24T02:56:59.832Z,92205.31
2022-11-24T02:59:26.439Z,92208.94
2022-11-24T03:01:52.882Z,92214.16
2022-11-24T03:04:19.329Z,92213.88
2022-11-24T03:06:45.773Z,92217.75
2022-11-24T03:09:12.204Z,92215.47
2022-11-24T03:11:39.205Z,92223.81
2022-11-24T03:14:06.239Z,92230.31
2022-11-24T03:16:33.343Z,92223.97
2022-11-24T03:19:00.402Z,92223.53
2022-11-24T03:21:27.486Z,92227.22
2022-11-24T03:23:54.322Z,92228.78
2022-11-24T03:26:22.592Z,92225.16
2022-11-24T03:28:49.053Z,92232.66
2022-11-24T03:31:15.626Z,92236.13
2022-11-24T03:33:42.402Z,92243.38
2022-11-24T03:36:09.290Z,92232.16
2022-11-24T03:38:36.049Z,92229.66
2022-11-24T03:41:02.497Z,92238.88
2022-11-24T03:43:28.960Z,92249.09
2022-11-24T03:45:55.398Z,92258.81
2022-11-24T03:48:22.129Z,92260.25
2022-11-24T03:50:57.349Z,92254.56
2022-11-24T03:53:25.277Z,92265.59
2022-11-24T03:55:52.382Z,92265.28
2022-11-24T03:58:19.507Z,92269.84
2022-11-24T04:00:48.718Z,92274.59
2022-11-24T04:03:15.785Z,92278.50
2022-11-24T04:05:42.268Z,92281.19
2022-11-24T04:08:09.268Z,92288.69
2022-11-24T04:10:37.747Z,92284.03
2022-11-24T04:13:10.479Z,92290.31
2022-11-24T04:15:40.336Z,92288.16
2022-11-24T04:18:07.747Z,92290.31
2022-11-24T04:20:34.617Z,92281.00
2022-11-24T04:23:01.116Z,92283.88
2022-11-24T04:25:27.752Z,92286.78
2022-11-24T04:27:55.368Z,92285.28
2022-11-24T04:30:23.826Z,92292.13
2022-11-24T04:32:50.785Z,92285.59
2022-11-24T04:35:17.555Z,92285.00
2022-11-24T04:37:44.009Z,92289.44
2022-11-24T04:40:11.150Z,92283.16
2022-11-24T04:42:37.946Z,92280.47
2022-11-24T04:45:05.980Z,92290.97
2022-11-24T04:47:32.984Z,92287.56
2022-11-24T04:49:59.542Z,92283.44
2022-11-24T04:52:26.441Z,92291.41
2022-11-24T04:54:52.974Z,92288.28
2022-11-24T04:57:22.072Z,92283.06
2022-11-24T04:59:49.706Z,92290.59
2022-11-24T05:02:16.202Z,92296.03
2022-11-24T05:04:42.902Z,92293.25
2022-11-24T05:07:17.992Z,92298.78
2022-11-24T05:10:05.075Z,92307.63
2022-11-24T05:12:31.732Z,92308.72
2022-11-24T05:14:59.490Z,92309.75
2022-11-24T05:17:34.876Z,92306.09
2022-11-24T05:20:01.686Z,92306.22
2022-11-24T05:22:29.374Z,92302.38
2022-11-24T05:24:55.847Z,92307.69
2022-11-24T05:27:22.934Z,92307.44
2022-11-24T05:29:49.806Z,92305.13
2022-11-24T05:32:16.392Z,92302.13
2022-11-24T05:34:43.229Z,92309.69
2022-11-24T05:37:09.637Z,92317.28
2022-11-24T05:39:36.958Z,92314.59
2022-11-24T05:42:25.604Z,92316.66
2022-11-24T05:44:53.276Z,92313.50
2022-11-24T05:47:20.586Z,92313.22
2022-11-24T05:49:47.356Z,92317.44
2022-11-24T05:52:14.100Z,92313.66
2022-11-24T05:54:40.585Z,92320.44
2022-11-24T05:57:07.407Z,92316.78
2022-11-24T05:59:35.292Z,92308.00
2022-11-24T06:02:01.984Z,92308.50
2022-11-24T06:04:28.630Z,92311.59
2022-11-24T06:06:55.073Z,92309.03
2022-11-24T06:09:21.508Z,92312.34
2022-11-24T06:11:48.885Z,92311.75
2022-11-24T06:14:15.314Z,92319.34
2022-11-24T06:16:41.829Z,92320.38
2022-11-24T06:19:09.964Z,92319.78
2022-11-24T06:21:36.429Z,92326.34
2022-11-24T06:24:02.874Z,92331.09
2022-11-24T06:26:29.307Z,92340.72
2022-11-24T06:28:55.811Z,92339.25
2022-11-24T06:31:22.485Z,92347.63
2022-11-24T06:33:49.075Z,92340.53
2022-11-24T06:36:16.115Z,92341.00
2022-11-24T06:38:42.642Z,92344.63
2022-11-24T06:41:14.134Z,92340.69
2022-11-24T06:43:40.802Z,92339.56
2022-11-24T06:46:08.020Z,92342.41
2022-11-24T06:48:34.535Z,92343.97
2022-11-24T06:51:02.908Z,92351.25
2022-11-24T06:53:37.592Z,92338.38
2022-11-24T06:56:16.144Z,92332.09
2022-11-24T06:58:48.602Z,92336.94
2022-11-24T07:01:28.805Z,92340.09
2022-11-24T07:03:56.822Z,92337.75
2022-11-24T07:06:24.847Z,92345.25
2022-11-24T07:08:51.838Z,92360.63
2022-11-24T07:11:21.439Z,92357.97
2022-11-24T07:13:48.521Z,92349.19
2022-11-24T07:16:20.660Z,92359.69
2022-11-24T07:18:49.044Z,92348.09
2022-11-24T07:21:16.253Z,92343.50
2022-11-24T07:23:43.219Z,92337.69
2022-11-24T07:26:10.683Z,92348.97
2022-11-24T07:28:37.762Z,92356.16
2022-11-24T07:31:19.025Z,92359.69
2022-11-24T07:33:53.539Z,92362.44
2022-11-24T07:36:20.587Z,92371.59
2022-11-24T07:38:47.470Z,92371.16
2022-11-24T07:41:15.172Z,92373.66
2022-11-24T07:43:41.672Z,92381.16
2022-11-24T07:46:12.503Z,92391.16
2022-11-24T07:48:39.145Z,92390.28
2022-11-24T07:51:06.125Z,92387.22
2022-11-24T07:53:33.564Z,92396.22
2022-11-24T07:56:01.700Z,92405.31
2022-11-24T07:58:32.601Z,92402.28
2022-11-24T08:00:59.779Z,92398.09
2022-11-24T08:03:26.394Z,92402.13
2022-11-24T08:06:23.132Z,92404.41
2022-11-24T08:08:47.086Z,92417.84
2022-11-24T08:11:15.938Z,92426.78
2022-11-24T08:13:43.182Z,92423.13
2022-11-24T08:16:12.546Z,92419.44
2022-11-24T08:18:39.590Z,92414.84
2022-11-24T08:21:07.111Z,92421.78
2022-11-24T08:23:34.125Z,92412.13
2022-11-24T08:26:08.842Z,92410.53
2022-11-24T08:28:36.542Z,92410.84
2022-11-24T08:31:08.283Z,92410.84
2022-11-24T08:33:34.854Z,92411.91
2022-11-24T08:36:09.894Z,92413.19
2022-11-24T08:38:36.699Z,92414.19
2022-11-24T08:41:04.825Z,92430.06
2022-11-24T08:43:31.724Z,92421.09
2022-11-24T08:46:06.878Z,92429.81
2022-11-24T08:48:33.879Z,92430.91
2022-11-24T08:51:07.423Z,92431.25
2022-11-24T08:53:33.850Z,92427.44
2022-11-24T08:56:01.029Z,92432.50
2022-11-24T08:58:29.442Z,92423.56
2022-11-24T09:00:56.022Z,92434.44
2022-11-24T09:03:22.512Z,92429.25
2022-11-24T09:05:52.945Z,92441.81
2022-11-24T09:08:19.574Z,92443.19
2022-11-24T09:10:46.648Z,92448.66
2022-11-24T09:13:13.080Z,92434.53
2022-11-24T09:15:39.479Z,92446.53
2022-11-24T09:18:05.978Z,92446.25
2022-11-24T09:20:32.416Z,92443.66
2022-11-24T09:22:58.850Z,92444.63
2022-11-24T09:25:25.294Z,92461.72
2022-11-24T09:27:51.789Z,92470.75
2022-11-24T09:30:18.296Z,92454.53
2022-11-24T09:32:44.706Z,92456.78
2022-11-24T09:35:11.150Z,92466.34
2022-11-24T09:37:37.590Z,92476.81
2022-11-24T09:40:04.467Z,92478.09
2022-11-24T09:43:09.109Z,92479.63
2022-11-24T09:48:38.897Z,92492.25
2022-11-24T09:51:09.383Z,92504.47
2022-11-24T09:54:03.242Z,92511.78
2022-11-24T09:56:34.474Z,92508.06
2022-11-24T09:59:06.353Z,92493.19
2022-11-24T10:01:37.011Z,92508.81
2022-11-24T10:04:12.265Z,92515.22
2022-11-24T10:07:15.943Z,92516.34
2022-11-24T10:10:03.215Z,92523.94
2022-11-24T10:12:49.865Z,92511.06
2022-11-24T10:15:44.931Z,92513.75
2022-11-24T10:18:18.425Z,92522.72
2022-11-24T10:21:07.669Z,92525.97
2022-11-24T10:23:59.732Z,92521.09
2022-11-24T10:26:39.579Z,92523.69
2022-11-24T10:29:28.559Z,92530.09
2022-11-24T10:31:56.329Z,92527.19
2022-11-24T10:34:38.027Z,92528.00
2022-11-24T10:37:16.984Z,92538.34
2022-11-24T10:40:26.888Z,92550.41
2022-11-24T10:42:58.531Z,92549.66
2022-11-24T10:45:27.587Z,92537.97
2022-11-24T10:47:54.108Z,92547.41
2022-11-24T10:50:23.476Z,92543.00
2022-11-24T10:53:08.405Z,92532.00
2022-11-24T10:55:56.695Z,92540.88
2022-11-24T10:58:24.226Z,92544.59
2022-11-24T11:00:50.694Z,92536.69
2022-11-24T11:03:20.911Z,92536.97
2022-11-24T11:05:51.755Z,92533.69
2022-11-24T11:08:29.469Z,92537.63
2022-11-24T11:11:17.685Z,92548.13
2022-11-24T11:14:03.052Z,92545.44
2022-11-24T11:16:55.548Z,92535.38
2022-11-24T11:20:00.089Z,92539.13
2022-11-24T11:22:31.938Z,92547.75
2022-11-24T11:25:21.645Z,92545.59
2022-11-24T11:27:48.768Z,92546.16
2022-11-24T11:36:11.587Z,92582.09
2022-11-24T11:38:39.584Z,92576.59
2022-11-24T11:41:13.602Z,92565.34
2022-11-24T11:43:41.136Z,92561.59
2022-11-24T11:46:18.017Z,92562.25
2022-11-24T11:48:46.689Z,92557.94
2022-11-24T11:51:27.922Z,92565.22
2022-11-24T11:54:03.674Z,92566.06
2022-11-24T11:56:34.893Z,92565.59
2022-11-24T11:59:21.450Z,92555.59
2022-11-24T12:01:58.517Z,92562.44
2022-11-24T12:04:53.837Z,92551.69
2022-11-24T12:07:29.355Z,92561.41
2022-11-24T12:10:10.050Z,92552.22
2022-11-24T12:12:45.147Z,92565.59
2022-11-24T12:15:32.402Z,92558.25
2022-11-24T12:21:52.852Z,92570.84
2022-11-24T12:24:28.519Z,92573.38
2022-11-24T12:27:22.589Z,92581.31
2022-11-24T12:30:13.295Z,92593.41
2022-11-24T12:32:58.226Z,92609.09
2022-11-24T12:35:44.577Z,92608.13
2022-11-24T12:38:41.003Z,92607.56
2022-11-24T12:41:45.543Z,92601.78
2022-11-24T12:44:41.879Z,92604.13
2022-11-24T12:47:17.742Z,92604.66
2022-11-24T12:49:53.953Z,92598.34
2022-11-24T12:52:28.317Z,92606.03
2022-11-24T12:54:55.417Z,92606.84
2022-11-24T12:57:34.928Z,92603.97
2022-11-24T13:00:13.109Z,92597.66
2022-11-24T13:03:05.500Z,92609.66
2022-11-24T13:05:43.393Z,92615.09
2022-11-24T13:08:10.035Z,92607.28
2022-11-24T13:10:56.213Z,92604.41
2022-11-24T13:13:27.868Z,92604.94
2022-11-24T13:16:20.630Z,92603.78
2022-11-24T13:18:44.167Z,92601.19
2022-11-24T13:21:50.885Z,92615.97
2022-11-24T13:24:18.054Z,92605.59
2022-11-24T13:26:50.490Z,92610.53
2022-11-24T13:29:39.496Z,92613.91
2022-11-24T13:32:05.883Z,92610.53
2022-11-24T13:34:42.678Z,92613.03
2022-11-24T13:37:34.738Z,92608.94
2022-11-24T13:40:22.447Z,92617.59
2022-11-24T13:43:02.501Z,92612.88
2022-11-24T13:45:45.112Z,92606.06
2022-11-24T13:48:20.962Z,92611.31
2022-11-24T13:50:51.362Z,92613.91
2022-11-24T13:53:42.638Z,92615.50
2022-11-24T13:56:23.788Z,92600.00
2022-11-24T13:58:57.685Z,92604.50
2022-11-24T14:01:25.664Z,92602.84
2022-11-24T14:04:29.173Z,92608.72
2022-11-24T14:07:01.098Z,92604.22
2022-11-24T14:09:42.452Z,92605.34
2022-11-24T14:12:20.502Z,92596.34
2022-11-24T14:14:49.829Z,92608.72
2022-11-24T14:17:17.746Z,92611.50
2022-11-24T14:19:47.138Z,92617.97
2022-11-24T14:22:22.672Z,92623.66
2022-11-24T14:24:55.015Z,92629.38
2022-11-24T14:27:36.681Z,92626.09
2022-11-24T14:30:15.413Z,92627.91
2022-11-24T14:32:59.898Z,92620.28
2022-11-24T14:35:31.810Z,92624.69
2022-11-24T14:37:59.860Z,92617.59
2022-11-24T14:40:46.457Z,92610.00
2022-11-24T14:43:33.612Z,92615.25
2022-11-24T14:46:08.001Z,92619.66
2022-11-24T14:48:40.319Z,92613.09
2022-11-24T14:51:18.017Z,92615.66
2022-11-24T14:53:46.792Z,92609.59
2022-11-24T14:56:34.465Z,92611.09
2022-11-24T14:59:01.202Z,92618.22
2022-11-24T15:01:30.024Z,92612.19
2022-11-24T15:07:12.252Z,92609.28
2022-11-24T15:09:47.611Z,92605.53
2022-11-24T15:12:37.645Z,92600.72
2022-11-24T15:15:15.811Z,92604.34
2022-11-24T15:17:52.296Z,92605.84
2022-11-24T15:20:30.176Z,92607.59
2022-11-24T15:23:25.660Z,92597.84
2022-11-24T15:25:54.241Z,92607.69
2022-11-24T15:28:25.641Z,92611.28
2022-11-24T15:31:12.897Z,92612.34
2022-11-24T15:33:40.753Z,92626.19
2022-11-24T15:36:07.626Z,92620.94
2022-11-24T15:38:34.039Z,92617.00
2022-11-24T15:41:01.657Z,92613.59
2022-11-24T15:43:34.520Z,92610.66
2022-11-24T15:46:02.582Z,92602.69
2022-11-24T15:48:29.291Z,92609.66
2022-11-24T15:50:57.312Z,92613.50
2022-11-24T15:53:30.174Z,92612.94
2022-11-24T15:55:57.623Z,92619.16
2022-11-24T15:58:24.432Z,92623.59
2022-11-24T16:00:53.452Z,92616.50
2022-11-24T16:06:15.077Z,92619.53
2022-11-24T16:08:44.957Z,92614.03
2022-11-24T16:11:11.531Z,92620.22
2022-11-24T16:13:38.100Z,92623.44
2022-11-24T16:16:04.905Z,92627.97
2022-11-24T16:18:35.382Z,92629.50
2022-11-24T16:21:01.891Z,92626.59
2022-11-24T16:23:28.353Z,92637.28
2022-11-24T16:25:54.818Z,92636.66
2022-11-24T16:28:21.369Z,92637.31
2022-11-24T16:30:49.671Z,92636.69
2022-11-24T16:33:16.786Z,92637.31
2022-11-24T16:35:43.324Z,92633.78
2022-11-24T16:38:17.548Z,92640.00
2022-11-24T16:40:44.186Z,92634.94
2022-11-24T16:43:10.820Z,92640.53
2022-11-24T16:45:40.817Z,92643.03
2022-11-24T16:48:10.267Z,92642.97
2022-11-24T16:50:37.753Z,92644.69
2022-11-24T16:53:04.282Z,92638.81
2022-11-24T16:55:30.736Z,92638.97
2022-11-24T16:57:57.237Z,92644.56
2022-11-24T17:00:23.700Z,92646.28
2022-11-24T17:02:50.256Z,92639.94
2022-11-24T17:05:16.931Z,92635.22
2022-11-24T17:07:43.395Z,92645.06
2022-11-24T17:10:10.183Z,92637.63
2022-11-24T17:12:37.549Z,92632.44
2022-11-24T17:18:16.673Z,92635.47
2022-11-24T17:20:38.388Z,92640.44
2022-11-24T17:23:04.827Z,92638.78
2022-11-24T17:25:32.379Z,92639.81
2022-11-24T17:27:58.806Z,92639.34
2022-11-24T17:30:25.273Z,92649.53
2022-11-24T17:32:56.623Z,92645.38
2022-11-24T17:35:23.575Z,92643.34
2022-11-24T17:37:50.041Z,92647.06
2022-11-24T17:40:34.308Z,92642.88
2022-11-24T17:43:01.226Z,92641.09
2022-11-24T17:45:28.784Z,92641.97
2022-11-24T17:47:56.143Z,92647.63
2022-11-24T17:50:26.033Z,92647.06
2022-11-24T17:52:53.736Z,92639.50
2022-11-24T17:55:20.271Z,92629.75
2022-11-24T17:57:46.722Z,92636.66
2022-11-24T18:00:13.931Z,92636.06
2022-11-24T18:02:40.441Z,92633.56
2022-11-24T18:05:07.396Z,92638.22
2022-11-24T18:07:36.440Z,92625.53
2022-11-24T18:10:03.297Z,92632.41
2022-11-24T18:12:29.741Z,92624.84
2022-11-24T18:14:56.269Z,92622.44
2022-11-24T18:17:22.749Z,92624.16
2022-11-24T18:19:49.218Z,92619.16
2022-11-24T18:22:15.767Z,92622.31
2022-11-24T18:24:42.243Z,92617.84
2022-11-24T18:27:08.711Z,92607.56
2022-11-24T18:29:35.174Z,92612.41
2022-11-24T18:32:02.225Z,92611.03
2022-11-24T18:34:28.742Z,92619.28
2022-11-24T18:36:55.265Z,92622.75
2022-11-24T18:39:21.808Z,92619.22
2022-11-24T18:41:48.429Z,92624.88
2022-11-24T18:44:14.929Z,92612.53
2022-11-24T18:46:41.398Z,92614.00
2022-11-24T18:49:07.913Z,92615.66
2022-11-24T18:51:34.657Z,92611.09
2022-11-24T18:54:02.922Z,92613.13
2022-11-24T18:56:29.452Z,92612.75
2022-11-24T18:58:56.694Z,92620.41
2022-11-24T19:01:25.627Z,92624.09
2022-11-24T19:03:54.391Z,92622.88
2022-11-24T19:06:41.168Z,92625.91
2022-11-24T19:09:20.399Z,92629.44
2022-11-24T19:11:47.469Z,92620.28
2022-11-24T19:14:16.358Z,92621.16
2022-11-24T19:16:43.834Z,92611.47
2022-11-24T19:19:12.266Z,92609.47
2022-11-24T19:21:40.245Z,92615.22
2022-11-24T19:24:10.065Z,92608.25
2022-11-24T19:26:37.188Z,92602.50
2022-11-24T19:29:04.500Z,92598.13
2022-11-24T19:31:31.449Z,92601.59
2022-11-24T19:33:59.561Z,92598.28
2022-11-24T19:36:26.245Z,92599.34
2022-11-24T19:38:57.189Z,92604.38
2022-11-24T19:41:28.863Z,92601.63
2022-11-24T19:43:55.400Z,92601.47
2022-11-24T19:46:26.093Z,92610.03
2022-11-24T19:48:57.250Z,92606.25
2022-11-24T19:51:31.170Z,92608.81
2022-11-24T19:53:58.695Z,92601.91
2022-11-24T19:56:27.276Z,92603.75
2022-11-24T19:58:55.056Z,92601.38
2022-11-24T20:01:27.218Z,92609.50
2022-11-24T20:03:58.586Z,92617.28
2022-11-24T20:06:26.391Z,92606.34
2022-11-24T20:08:53.042Z,92601.97
2022-11-24T20:11:21.505Z,92602.41
2022-11-24T20:13:49.809Z,92602.41
2022-11-24T20:16:26.303Z,92598.16
2022-11-24T20:18:54.989Z,92599.22
2022-11-24T20:21:24.039Z,92597.22
2022-11-24T20:24:18.492Z,92605.97
2022-11-24T20:26:50.919Z,92597.81
2022-11-24T20:29:17.724Z,92590.06
2022-11-24T20:31:49.905Z,92593.53
2022-11-24T20:34:17.204Z,92592.19
2022-11-24T20:36:45.566Z,92598.38
2022-11-24T20:39:26.141Z,92594.44
2022-11-24T20:41:54.258Z,92597.38
2022-11-24T20:44:22.081Z,92594.22
2022-11-24T20:46:48.983Z,92600.06
2022-11-24T20:49:18.211Z,92613.00
2022-11-24T20:51:47.668Z,92607.81
2022-11-24T20:54:16.578Z,92604.28
2022-11-24T20:56:46.263Z,92603.88
2022-11-24T20:59:21.493Z,92601.28
2022-11-24T21:01:50.050Z,92603.91
2022-11-24T21:04:19.554Z,92602.94
2022-11-24T21:06:46.715Z,92600.75
2022-11-24T21:09:13.220Z,92599.41
2022-11-24T21:11:39.775Z,92601.00
2022-11-24T21:14:07.793Z,92583.38
2022-11-24T21:16:37.280Z,92591.75
2022-11-24T21:19:06.984Z,92589.38
2022-11-24T21:21:35.620Z,92597.09
2022-11-24T21:24:09.566Z,92597.69
2022-11-24T21:26:37.277Z,92591.31
2022-11-24T21:29:04.183Z,92589.16
2022-11-24T21:31:31.061Z,92589.38
2022-11-24T21:33:57.554Z,92583.97
2022-11-24T21:36:26.280Z,92585.53
2022-11-24T21:38:55.327Z,92587.41
2022-11-24T21:41:23.202Z,92592.38
2022-11-24T21:43:50.230Z,92594.75
2022-11-24T21:46:16.971Z,92595.34
2022-11-24T21:48:43.747Z,92590.00
2022-11-24T21:51:13.612Z,92592.00
2022-11-24T21:53:41.095Z,92581.06
2022-11-24T21:56:12.738Z,92577.91
2022-11-24T21:58:45.602Z,92584.47
2022-11-24T22:01:12.623Z,92581.91
2022-11-24T22:03:39.104Z,92581.50
2022-11-24T22:06:06.122Z,92582.09
2022-11-24T22:08:32.795Z,92586.25
2022-11-24T22:11:11.595Z,92574.94
2022-11-24T22:13:38.520Z,92582.09
2022-11-24T22:16:07.723Z,92588.47
2022-11-24T22:18:38.856Z,92578.75
2022-11-24T22:21:06.939Z,92578.75
2022-11-24T22:23:35.114Z,92581.94
2022-11-24T22:26:13.798Z,92584.34
2022-11-24T22:28:41.067Z,92593.03
2022-11-24T22:31:10.194Z,92591.44
2022-11-24T22:33:36.668Z,92589.50
2022-11-24T22:36:03.937Z,92593.84
2022-11-24T22:38:32.832Z,92585.72
2022-11-24T22:41:07.006Z,92593.84
2022-11-24T22:43:35.230Z,92588.66
2022-11-24T22:46:05.292Z,92593.44
2022-11-24T22:48:32.387Z,92597.84
2022-11-24T22:51:07.184Z,92598.25
2022-11-24T22:53:34.060Z,92600.22
2022-11-24T22:56:02.742Z,92605.00
2022-11-24T22:58:30.785Z,92605.38
2022-11-24T23:00:57.472Z,92612.13
2022-11-24T23:03:23.973Z,92612.53
2022-11-24T23:05:50.514Z,92601.38
2022-11-24T23:08:16.935Z,92600.75
2022-11-24T23:10:43.380Z,92604.91
2022-11-24T23:13:09.810Z,92604.91
2022-11-24T23:15:36.217Z,92603.34
2022-11-24T23:18:02.633Z,92604.50
2022-11-24T23:20:29.106Z,92608.31
2022-11-24T23:22:56.823Z,92606.13
2022-11-24T23:25:23.341Z,92609.31
2022-11-24T23:27:49.776Z,92614.09
2022-11-24T23:30:16.283Z,92611.28
2022-11-24T23:32:42.712Z,92619.03
2022-11-24T23:35:13.605Z,92618.06
2022-11-24T23:38:06.009Z,92609.09
2022-11-24T23:40:28.197Z,92600.56
2022-11-24T23:42:54.606Z,92608.69
2022-11-24T23:45:21.026Z,92601.75
2022-11-24T23:47:47.436Z,92606.34
2022-11-24T23:50:13.901Z,92605.53
2022-11-24T23:52:40.342Z,92612.28
2022-11-24T23:55:07.193Z,92604.53
2022-11-24T23:57:33.594Z,92607.31
